Time;durP1;ratioP1;P1;durP2;ratioP2;P2;SDS_P1;SDS_P2;PMS_P1;PMS_P2;Temp;Humidity;BMP_temperature;BMP_pressure;BME280_temperature;BME280_humidity;BME280_pressure;Samples;Min_cycle;Max_cycle;Signal;HPM_P1;HPM_P2
2022/08/09 00:00:08;;;;;;;2.78;0.47;;;23.70;58.30;;;;;;4508067;31;20238;-68
2022/08/09 00:02:34;;;;;;;0.68;0.47;;;23.70;58.40;;;;;;4507664;31;20525;-69
2022/08/09 00:05:01;;;;;;;2.05;0.63;;;23.60;58.30;;;;;;4507814;31;20072;-68
2022/08/09 00:07:27;;;;;;;1.70;0.70;;;23.70;58.30;;;;;;4507721;31;20158;-68
2022/08/09 00:09:53;;;;;;;0.95;0.50;;;23.60;58.30;;;;;;4507717;31;20073;-68
2022/08/09 00:12:18;;;;;;;1.08;0.47;;;23.60;58.30;;;;;;4508040;31;20061;-68
2022/08/09 00:14:44;;;;;;;1.00;0.40;;;23.60;58.30;;;;;;4507745;31;20077;-68
2022/08/09 00:17:10;;;;;;;1.65;0.55;;;23.60;58.30;;;;;;4507523;31;20494;-68
2022/08/09 00:19:36;;;;;;;1.70;0.60;;;23.60;58.30;;;;;;4507768;31;20053;-68
2022/08/09 00:22:03;;;;;;;2.45;0.70;;;23.60;58.30;;;;;;4507764;31;20069;-68
2022/08/09 00:24:30;;;;;;;1.00;0.50;;;23.60;58.30;;;;;;4507668;31;20076;-68
2022/08/09 00:26:57;;;;;;;0.77;0.50;;;23.60;58.30;;;;;;4507356;31;20162;-68
2022/08/09 00:29:24;;;;;;;1.23;0.60;;;23.60;58.30;;;;;;4507794;31;20380;-68
2022/08/09 00:31:50;;;;;;;1.23;0.50;;;23.60;58.30;;;;;;4507238;31;20100;-68
2022/08/09 00:34:15;;;;;;;1.10;0.40;;;23.60;58.30;;;;;;4507817;31;20081;-68
2022/08/09 00:36:41;;;;;;;1.63;0.55;;;23.60;58.30;;;;;;4507462;31;20503;-68
2022/08/09 00:39:08;;;;;;;0.88;0.40;;;23.60;58.30;;;;;;4507302;31;20187;-68
2022/08/09 00:41:35;;;;;;;0.80;0.50;;;23.60;58.20;;;;;;4507766;31;20221;-68
2022/08/09 00:44:01;;;;;;;1.13;0.60;;;23.60;58.20;;;;;;4507418;31;20314;-69
2022/08/09 00:46:26;;;;;;;3.08;0.60;;;23.60;58.20;;;;;;4507509;31;20065;-68
2022/08/09 00:48:52;;;;;;;1.38;0.52;;;23.60;58.20;;;;;;4507460;31;20080;-69
2022/08/09 00:51:18;;;;;;;1.33;0.43;;;23.60;58.20;;;;;;4507484;31;20076;-68
2022/08/09 00:53:45;;;;;;;0.98;0.40;;;23.60;58.20;;;;;;4507195;31;20085;-68
2022/08/09 00:56:12;;;;;;;1.35;0.63;;;23.60;58.10;;;;;;4507607;31;20108;-68
2022/08/09 00:58:38;;;;;;;2.08;0.63;;;23.60;58.20;;;;;;4507411;31;20202;-68
2022/08/09 01:01:16;;;;;;;2.85;0.68;;;23.60;58.10;;;;;;4507651;31;20083;-68
2022/08/09 01:04:07;;;;;;;1.45;0.50;;;23.50;58.10;;;;;;4507426;31;20465;-68
2022/08/09 01:06:53;;;;;;;1.88;0.52;;;23.50;58.10;;;;;;4507629;31;20598;-69
2022/08/09 01:09:34;;;;;;;1.65;0.60;;;23.50;58.10;;;;;;4508689;31;20203;-68
2022/08/09 01:12:21;;;;;;;1.63;0.50;;;23.50;58.10;;;;;;4510592;31;20068;-68
2022/08/09 01:15:05;;;;;;;0.75;0.43;;;23.50;58.10;;;;;;4510329;31;20084;-68
2022/08/09 01:17:52;;;;;;;0.95;0.63;;;23.50;58.00;;;;;;4510365;31;20119;-68
2022/08/09 01:20:32;;;;;;;1.13;0.32;;;23.50;58.00;;;;;;4510502;31;20130;-68
2022/08/09 01:23:32;;;;;;;1.25;0.50;;;23.50;58.10;;;;;;4510493;31;20195;-68
2022/08/09 01:26:10;;;;;;;0.77;0.40;;;23.50;58.00;;;;;;4510430;31;20091;-68
2022/08/09 01:28:41;;;;;;;1.63;0.47;;;23.50;58.00;;;;;;4509983;31;20076;-68
2022/08/09 01:31:11;;;;;;;0.75;0.38;;;23.40;58.00;;;;;;4510407;31;20595;-68
2022/08/09 01:33:39;;;;;;;1.27;0.47;;;23.50;58.10;;;;;;4495430;31;20116;-68
2022/08/09 01:36:10;;;;;;;1.58;0.52;;;23.40;58.00;;;;;;4509845;31;20088;-68
2022/08/09 01:38:41;;;;;;;0.93;0.35;;;23.40;58.00;;;;;;4510070;31;20605;-68
2022/08/09 01:41:14;;;;;;;1.25;0.60;;;23.40;58.00;;;;;;4510276;31;20060;-68
2022/08/09 01:43:45;;;;;;;1.25;0.40;;;23.40;58.00;;;;;;4509888;31;20084;-68
2022/08/09 01:46:13;;;;;;;0.55;0.30;;;23.40;58.00;;;;;;4510023;31;20092;-68
2022/08/09 01:48:40;;;;;;;1.40;0.60;;;23.40;58.00;;;;;;4509950;31;20077;-68
2022/08/09 01:51:08;;;;;;;0.75;0.38;;;23.40;58.00;;;;;;4509986;31;20071;-68
2022/08/09 01:53:36;;;;;;;1.98;0.50;;;23.40;58.00;;;;;;4509691;31;20077;-68
2022/08/09 01:56:04;;;;;;;1.13;0.40;;;23.40;57.90;;;;;;4510138;31;20596;-68
2022/08/09 01:58:31;;;;;;;0.88;0.35;;;23.40;58.00;;;;;;4509614;31;20449;-68
2022/08/09 02:00:58;;;;;;;0.82;0.45;;;23.40;58.00;;;;;;4509590;31;20085;-68
2022/08/09 02:03:28;;;;;;;3.75;0.60;;;23.40;58.00;;;;;;4509540;31;20069;-68
2022/08/09 02:05:55;;;;;;;0.90;0.50;;;23.40;58.00;;;;;;4509449;31;20073;-74
2022/08/09 02:08:23;;;;;;;0.28;0.20;;;23.40;57.90;;;;;;4509499;31;20242;-67
2022/08/09 02:10:53;;;;;;;0.90;0.40;;;23.40;58.00;;;;;;4509765;31;20069;-68
2022/08/09 02:13:21;;;;;;;0.88;0.50;;;23.40;58.00;;;;;;4509211;31;20095;-68
2022/08/09 02:15:50;;;;;;;0.95;0.40;;;23.40;57.90;;;;;;4509378;31;20088;-69
2022/08/09 02:18:22;;;;;;;0.68;0.30;;;23.40;58.00;;;;;;4509305;31;20087;-68
2022/08/09 02:20:53;;;;;;;0.95;0.40;;;23.40;57.90;;;;;;4508652;31;20230;-68
2022/08/09 02:23:29;;;;;;;0.30;0.30;;;23.40;58.00;;;;;;4509143;31;20480;-68
2022/08/09 02:25:58;;;;;;;0.40;0.40;;;23.40;58.00;;;;;;4509306;31;20084;-68
2022/08/09 02:28:45;;;;;;;0.93;0.38;;;23.30;57.90;;;;;;4509068;31;20090;-68
2022/08/09 02:31:24;;;;;;;0.85;0.47;;;23.30;57.90;;;;;;4509265;31;20068;-68
2022/08/09 02:33:55;;;;;;;0.50;0.40;;;23.30;57.90;;;;;;4509153;31;20081;-68
2022/08/09 02:36:32;;;;;;;0.85;0.50;;;23.30;57.90;;;;;;4509092;31;20088;-68
2022/08/09 02:39:04;;;;;;;1.20;0.50;;;23.30;57.80;;;;;;4509403;31;20073;-68
2022/08/09 02:42:00;;;;;;;1.15;0.40;;;23.30;57.90;;;;;;4509346;31;20084;-68
2022/08/09 02:44:33;;;;;;;1.10;0.40;;;23.30;57.80;;;;;;4508553;31;20100;-68
2022/08/09 02:47:03;;;;;;;0.60;0.40;;;23.30;57.90;;;;;;4508776;31;20217;-68
2022/08/09 02:49:31;;;;;;;0.57;0.30;;;23.30;57.90;;;;;;4509103;31;20073;-68
2022/08/09 02:51:59;;;;;;;0.98;0.50;;;23.30;57.90;;;;;;4494652;31;20104;-68
2022/08/09 02:54:26;;;;;;;0.57;0.32;;;23.30;57.80;;;;;;4509046;31;20083;-68
2022/08/09 02:56:53;;;;;;;0.50;0.40;;;23.30;57.90;;;;;;4508687;31;20170;-68
2022/08/09 02:59:20;;;;;;;0.90;0.38;;;23.30;57.80;;;;;;4508943;31;20077;-68
2022/08/09 03:01:48;;;;;;;0.88;0.30;;;23.30;57.90;;;;;;4508926;31;20081;-68
2022/08/09 03:04:15;;;;;;;0.88;0.50;;;23.30;57.90;;;;;;4508588;31;20202;-68
2022/08/09 03:06:43;;;;;;;0.52;0.32;;;23.30;57.90;;;;;;4508613;31;20202;-68
2022/08/09 03:09:10;;;;;;;0.98;0.30;;;23.30;57.90;;;;;;4508508;31;20379;-68
2022/08/09 03:11:38;;;;;;;0.50;0.30;;;23.30;57.90;;;;;;4508710;31;20445;-68
2022/08/09 03:14:05;;;;;;;0.80;0.40;;;23.20;57.80;;;;;;4508497;31;20088;-68
2022/08/09 03:16:32;;;;;;;0.85;0.30;;;23.30;57.90;;;;;;4508442;31;20085;-68
2022/08/09 03:19:00;;;;;;;0.60;0.22;;;23.20;57.80;;;;;;4508411;31;20486;-68
2022/08/09 03:21:27;;;;;;;0.88;0.40;;;23.20;57.80;;;;;;4508382;31;20076;-68
2022/08/09 03:23:53;;;;;;;0.40;0.20;;;23.20;57.80;;;;;;4508408;31;20088;-68
2022/08/09 03:26:19;;;;;;;0.65;0.30;;;23.20;57.80;;;;;;4508320;31;20083;-68
2022/08/09 03:28:47;;;;;;;0.63;0.30;;;23.20;57.90;;;;;;4507915;31;20079;-68
2022/08/09 03:31:14;;;;;;;0.65;0.40;;;23.20;57.80;;;;;;4508245;31;20081;-68
2022/08/09 03:33:42;;;;;;;1.02;0.30;;;23.20;57.90;;;;;;4508157;31;20430;-68
2022/08/09 03:36:09;;;;;;;0.45;0.40;;;23.20;57.90;;;;;;4507806;31;20093;-68
2022/08/09 03:38:39;;;;;;;0.47;0.32;;;23.20;57.90;;;;;;4508354;31;20072;-68
2022/08/09 03:41:05;;;;;;;0.52;0.32;;;23.20;57.80;;;;;;4508138;31;20222;-68
2022/08/09 03:43:31;;;;;;;0.50;0.30;;;23.20;57.80;;;;;;4507786;31;20081;-68
2022/08/09 03:45:59;;;;;;;0.68;0.38;;;23.20;57.80;;;;;;4508175;31;20199;-68
2022/08/09 03:48:25;;;;;;;0.65;0.40;;;23.20;57.80;;;;;;4507982;31;20095;-68
2022/08/09 03:50:53;;;;;;;0.82;0.30;;;23.20;57.80;;;;;;4508240;31;20080;-68
2022/08/09 03:53:21;;;;;;;0.32;0.20;;;23.10;57.80;;;;;;4508253;31;20165;-68
2022/08/09 03:55:48;;;;;;;1.05;0.38;;;23.10;57.80;;;;;;4507683;31;20504;-68
2022/08/09 03:58:14;;;;;;;0.63;0.30;;;23.10;57.80;;;;;;4507935;31;20077;-67
2022/08/09 04:00:41;;;;;;;0.60;0.40;;;23.10;57.80;;;;;;4507915;31;20084;-68
2022/08/09 04:03:08;;;;;;;0.73;0.30;;;23.10;57.80;;;;;;4507646;31;20214;-68
2022/08/09 04:05:34;;;;;;;0.68;0.20;;;23.10;57.80;;;;;;4508122;31;20102;-69
2022/08/09 04:08:00;;;;;;;1.10;0.30;;;23.10;57.80;;;;;;4508017;31;20561;-68
2022/08/09 04:10:26;;;;;;;0.47;0.22;;;23.10;57.80;;;;;;4507738;31;20490;-68
2022/08/09 04:12:53;;;;;;;0.55;0.30;;;23.10;57.80;;;;;;4507747;31;20164;-68
2022/08/09 04:15:23;;;;;;;0.80;0.30;;;23.10;57.80;;;;;;4508082;31;20099;-68
2022/08/09 04:17:49;;;;;;;0.50;0.30;;;23.10;57.80;;;;;;4507707;31;20540;-68
2022/08/09 04:20:16;;;;;;;0.63;0.40;;;23.10;57.80;;;;;;4507706;31;20083;-68
2022/08/09 04:22:44;;;;;;;0.77;0.25;;;23.10;57.80;;;;;;4493408;31;20115;-68
2022/08/09 04:25:10;;;;;;;0.40;0.30;;;23.10;57.80;;;;;;4507696;31;20072;-68
2022/08/09 04:27:40;;;;;;;1.42;0.30;;;23.10;57.80;;;;;;4507710;31;20081;-68
2022/08/09 04:30:11;;;;;;;0.43;0.20;;;23.10;57.80;;;;;;4507524;31;20077;-68
2022/08/09 04:32:37;;;;;;;0.75;0.30;;;23.10;57.80;;;;;;4507885;31;20506;-67
2022/08/09 04:35:09;;;;;;;0.40;0.28;;;23.00;57.70;;;;;;4507344;31;20102;-68
2022/08/09 04:37:36;;;;;;;0.13;0.13;;;23.00;57.70;;;;;;4507766;31;20095;-68
2022/08/09 04:40:02;;;;;;;1.58;0.20;;;23.10;57.80;;;;;;4507548;31;20068;-68
2022/08/09 04:42:29;;;;;;;0.90;0.30;;;23.00;57.70;;;;;;4507499;31;20077;-67
2022/08/09 04:44:56;;;;;;;0.20;0.20;;;23.00;57.70;;;;;;4509408;31;20093;-68
2022/08/09 04:47:24;;;;;;;0.47;0.20;;;23.00;57.80;;;;;;4510227;31;20270;-68
2022/08/09 04:49:51;;;;;;;0.30;0.20;;;23.00;57.80;;;;;;4510693;31;20226;-68
2022/08/09 04:52:18;;;;;;;0.50;0.30;;;23.00;57.80;;;;;;4510786;31;20080;-69
2022/08/09 04:54:44;;;;;;;1.67;0.45;;;23.00;57.80;;;;;;4510558;31;20132;-68
2022/08/09 04:57:10;;;;;;;0.65;0.30;;;23.00;57.80;;;;;;4510517;31;20494;-68
2022/08/09 04:59:36;;;;;;;0.50;0.28;;;23.00;57.80;;;;;;4496200;31;20069;-68
2022/08/09 05:02:02;;;;;;;0.55;0.32;;;23.00;57.80;;;;;;4510509;31;20115;-68
2022/08/09 05:04:29;;;;;;;1.00;0.30;;;23.00;57.80;;;;;;4510529;31;20088;-68
2022/08/09 05:06:55;;;;;;;0.35;0.25;;;23.00;57.90;;;;;;4496031;31;20068;-68
2022/08/09 05:09:20;;;;;;;0.22;0.20;;;23.00;57.80;;;;;;4496085;31;20073;-68
2022/08/09 05:11:46;;;;;;;0.43;0.30;;;23.00;57.80;;;;;;4510018;31;20080;-67
2022/08/09 05:14:12;;;;;;;0.40;0.30;;;23.00;57.80;;;;;;4510513;31;20230;-68
2022/08/09 05:16:38;;;;;;;0.50;0.30;;;23.00;57.80;;;;;;4509950;31;20562;-68
2022/08/09 05:19:04;;;;;;;0.77;0.50;;;23.00;57.90;;;;;;4510536;31;20091;-68
2022/08/09 05:21:30;;;;;;;0.40;0.30;;;23.00;57.90;;;;;;4510281;31;20127;-68
2022/08/09 05:23:56;;;;;;;0.63;0.20;;;23.00;57.80;;;;;;4510424;31;20076;-68
2022/08/09 05:26:22;;;;;;;0.22;0.20;;;22.90;57.90;;;;;;4510204;31;20565;-67
2022/08/09 05:28:48;;;;;;;0.60;0.30;;;22.90;57.90;;;;;;4509994;31;20080;-68
2022/08/09 05:31:14;;;;;;;0.50;0.28;;;22.90;57.80;;;;;;4510064;31;20479;-68
2022/08/09 05:33:40;;;;;;;0.55;0.28;;;22.90;57.90;;;;;;4510043;31;20486;-68
2022/08/09 05:36:06;;;;;;;0.32;0.30;;;22.90;57.90;;;;;;4509769;31;20085;-68
2022/08/09 05:38:33;;;;;;;0.50;0.30;;;22.90;57.90;;;;;;4509789;31;20241;-68
2022/08/09 05:40:59;;;;;;;0.55;0.25;;;22.90;57.90;;;;;;4495672;31;20077;-68
2022/08/09 05:43:25;;;;;;;0.60;0.30;;;22.90;57.90;;;;;;4509574;31;20081;-70
2022/08/09 05:45:51;;;;;;;0.65;0.35;;;22.90;57.90;;;;;;4509833;31;20211;-67
2022/08/09 05:48:17;;;;;;;0.35;0.20;;;22.90;57.90;;;;;;4509178;31;20248;-68
2022/08/09 05:50:43;;;;;;;0.22;0.17;;;22.90;57.90;;;;;;4509521;31;20189;-67
2022/08/09 05:53:10;;;;;;;0.93;0.40;;;23.00;58.00;;;;;;4509590;31;20061;-68
2022/08/09 05:55:36;;;;;;;0.30;0.30;;;23.00;58.00;;;;;;4508723;31;20064;-67
2022/08/09 05:58:01;;;;;;;0.50;0.30;;;23.00;59.00;;;;;;4509910;31;20496;-67
2022/08/09 06:00:30;;;;;;;0.50;0.30;;;23.00;58.00;;;;;;4509609;31;20218;-68
2022/08/09 06:02:58;;;;;;;0.43;0.30;;;23.00;58.10;;;;;;4509927;31;20097;-69
2022/08/09 06:05:29;;;;;;;0.50;0.30;;;23.00;58.10;;;;;;4495237;31;20080;-67
2022/08/09 06:07:55;;;;;;;0.80;0.30;;;23.00;58.10;;;;;;4509351;31;20092;-66
2022/08/09 06:10:36;;;;;;;0.32;0.30;;;23.00;58.00;;;;;;4509448;31;20100;-67
2022/08/09 06:13:11;;;;;;;0.20;0.20;;;23.00;58.10;;;;;;4509713;31;20153;-67
2022/08/09 06:15:37;;;;;;;0.35;0.30;;;23.00;58.10;;;;;;4509337;31;20166;-68
2022/08/09 06:18:03;;;;;;;1.58;0.30;;;23.00;58.10;;;;;;4509313;31;20121;-68
2022/08/09 06:20:30;;;;;;;0.30;0.20;;;23.00;58.20;;;;;;4509407;31;20080;-68
2022/08/09 06:22:56;;;;;;;1.10;0.40;;;23.00;58.20;;;;;;4509263;31;20426;-71
2022/08/09 06:25:23;;;;;;;5.70;0.40;;;23.10;58.30;;;;;;4509181;31;20411;-68
2022/08/09 06:27:49;;;;;;;1.92;0.50;;;23.10;58.50;;;;;;4509217;31;20072;-68
2022/08/09 06:30:15;;;;;;;0.52;0.40;;;23.10;58.60;;;;;;4509263;31;20088;-68
2022/08/09 06:32:41;;;;;;;1.48;0.50;;;23.20;58.80;;;;;;4508936;31;20080;-69
2022/08/09 06:35:08;;;;;;;1.13;0.80;;;23.20;59.00;;;;;;4509419;31;20169;-68
2022/08/09 06:37:34;;;;;;;1.15;0.50;;;23.20;59.30;;;;;;4508710;31;20084;-68
2022/08/09 06:40:00;;;;;;;3.47;0.80;;;23.30;59.50;;;;;;4508790;31;20457;-69
2022/08/09 06:42:26;;;;;;;2.70;0.85;;;23.30;59.70;;;;;;4509009;31;20075;-68
2022/08/09 06:44:52;;;;;;;2.85;1.00;;;23.30;59.80;;;;;;4509167;31;20073;-68
2022/08/09 06:47:18;;;;;;;3.38;0.80;;;23.30;60.00;;;;;;4508740;31;20360;-68
2022/08/09 06:49:45;;;;;;;2.90;0.85;;;23.30;60.10;;;;;;4509106;31;20092;-68
2022/08/09 06:52:11;;;;;;;1.45;0.80;;;23.40;60.00;;;;;;4509161;31;20089;-68
2022/08/09 06:54:37;;;;;;;3.38;0.70;;;23.40;60.00;;;;;;4509090;31;20111;-68
2022/08/09 06:57:03;;;;;;;1.80;0.70;;;23.40;60.00;;;;;;4508771;31;20120;-69
2022/08/09 06:59:29;;;;;;;1.70;0.57;;;23.50;60.00;;;;;;4508786;31;20207;-68
2022/08/09 07:01:54;;;;;;;2.50;0.73;;;23.50;60.00;;;;;;4494466;31;20086;-68
2022/08/09 07:04:20;;;;;;;1.42;0.63;;;23.50;60.00;;;;;;4508963;31;20069;-68
2022/08/09 07:06:47;;;;;;;1.77;0.50;;;23.60;60.00;;;;;;4508030;31;20061;-68
2022/08/09 07:09:13;;;;;;;2.33;0.80;;;23.60;59.80;;;;;;4508780;31;20135;-68
2022/08/09 07:11:39;;;;;;;2.50;0.63;;;23.60;59.70;;;;;;4508884;31;20084;-68
2022/08/09 07:14:04;;;;;;;1.38;0.50;;;23.60;59.60;;;;;;4508556;31;20418;-68
2022/08/09 07:16:30;;;;;;;2.60;0.77;;;23.50;59.40;;;;;;4508236;31;20236;-67
2022/08/09 07:18:56;;;;;;;3.22;0.88;;;23.50;59.40;;;;;;4508558;31;20079;-67
2022/08/09 07:21:22;;;;;;;2.38;0.77;;;23.50;59.40;;;;;;4508395;31;20065;-66
2022/08/09 07:23:48;;;;;;;2.85;0.68;;;23.50;59.40;;;;;;4508416;31;20065;-69
2022/08/09 07:26:14;;;;;;;4.03;0.75;;;23.40;59.30;;;;;;4508461;31;20124;-67
2022/08/09 07:28:39;;;;;;;3.72;0.77;;;23.40;59.40;;;;;;4508146;31;20211;-67
2022/08/09 07:31:05;;;;;;;2.58;0.65;;;23.40;59.50;;;;;;4508332;31;20127;-67
2022/08/09 07:33:32;;;;;;;1.50;0.50;;;23.40;59.50;;;;;;4508275;31;20077;-67
2022/08/09 07:35:58;;;;;;;1.90;0.57;;;23.40;59.50;;;;;;4507974;31;20088;-68
2022/08/09 07:38:24;;;;;;;1.52;0.50;;;23.40;59.60;;;;;;4508128;31;20197;-68
2022/08/09 07:40:53;;;;;;;1.83;0.45;;;23.40;59.70;;;;;;4508226;31;20483;-68
2022/08/09 07:43:18;;;;;;;2.17;0.70;;;23.40;59.80;;;;;;4507977;31;20157;-67
2022/08/09 07:45:44;;;;;;;1.25;0.50;;;23.40;59.80;;;;;;4493810;31;20077;-68
2022/08/09 07:48:12;;;;;;;1.63;0.40;;;23.40;59.80;;;;;;4508079;31;20124;-67
2022/08/09 07:50:39;;;;;;;1.85;0.55;;;23.50;59.90;;;;;;4507953;31;20068;-68
2022/08/09 07:53:06;;;;;;;2.25;0.50;;;23.50;59.90;;;;;;4493084;31;20080;-73
2022/08/09 07:55:33;;;;;;;1.20;0.50;;;23.50;59.80;;;;;;4507610;31;20492;-68
2022/08/09 07:58:00;;;;;;;5.45;0.50;;;23.60;59.80;;;;;;4507772;31;20065;-68
2022/08/09 08:00:28;;;;;;;1.38;0.60;;;23.60;59.70;;;;;;4507841;31;20068;-68
2022/08/09 08:02:56;;;;;;;1.52;0.50;;;23.60;59.40;;;;;;4508040;31;20135;-70
2022/08/09 08:05:22;;;;;;;2.63;0.50;;;23.60;59.20;;;;;;4507712;31;20080;-69
2022/08/09 08:07:48;;;;;;;1.58;0.35;;;23.60;59.00;;;;;;4507688;31;20064;-68
2022/08/09 08:10:13;;;;;;;1.58;0.40;;;23.70;58.80;;;;;;4507762;31;20520;-68
2022/08/09 08:12:42;;;;;;;1.85;0.40;;;23.70;58.60;;;;;;4507813;31;20505;-68
2022/08/09 08:15:08;;;;;;;0.95;0.40;;;23.70;58.40;;;;;;4508001;31;20077;-68
2022/08/09 08:17:35;;;;;;;1.05;0.40;;;23.80;58.30;;;;;;4507618;31;20073;-68
2022/08/09 08:20:02;;;;;;;2.42;0.60;;;23.80;58.10;;;;;;4507368;31;20230;-68
2022/08/09 08:22:28;;;;;;;2.03;0.50;;;23.80;57.90;;;;;;4507503;31;20509;-68
2022/08/09 08:24:56;;;;;;;1.23;0.40;;;23.80;57.80;;;;;;4507658;31;20076;-68
2022/08/09 08:27:24;;;;;;;1.90;0.52;;;23.80;57.60;;;;;;4507494;31;20073;-68
2022/08/09 08:29:51;;;;;;;1.35;0.47;;;23.80;57.30;;;;;;4507866;31;20285;-68
2022/08/09 08:32:19;;;;;;;1.77;0.52;;;23.80;57.20;;;;;;4507713;31;20536;-67
2022/08/09 08:34:46;;;;;;;1.13;0.30;;;23.80;57.10;;;;;;4493186;31;20375;-67
2022/08/09 08:37:12;;;;;;;1.73;0.57;;;23.80;57.00;;;;;;4507528;31;20127;-68
2022/08/09 08:39:38;;;;;;;0.45;0.20;;;23.80;56.70;;;;;;4507688;31;20076;-68
2022/08/09 08:42:04;;;;;;;0.60;0.30;;;23.80;56.50;;;;;;4507599;31;20227;-68
2022/08/09 08:44:35;;;;;;;1.83;0.35;;;23.80;56.30;;;;;;4507342;31;20433;-67
2022/08/09 08:47:01;;;;;;;1.40;0.35;;;23.90;56.20;;;;;;4507468;31;20156;-68
2022/08/09 08:49:32;;;;;;;0.65;0.30;;;23.90;56.20;;;;;;4507564;31;20099;-67
2022/08/09 08:52:00;;;;;;;2.78;0.45;;;23.90;56.00;;;;;;4507696;31;20178;-70
2022/08/09 08:54:25;;;;;;;0.55;0.30;;;23.90;55.90;;;;;;4507617;31;20077;-67
2022/08/09 08:56:53;;;;;;;1.65;0.45;;;23.90;55.80;;;;;;4493302;31;20083;-67
2022/08/09 08:59:19;;;;;;;1.88;0.60;;;24.00;55.80;;;;;;4507467;31;20080;-67
2022/08/09 09:01:47;;;;;;;1.45;0.43;;;24.00;55.80;;;;;;4507799;31;20229;-67
2022/08/09 09:04:15;;;;;;;0.73;0.38;;;24.00;55.60;;;;;;4507434;31;20774;-68
2022/08/09 09:06:41;;;;;;;1.35;0.40;;;24.00;56.50;;;;;;4493396;31;20069;-68
2022/08/09 09:09:20;;;;;;;1.45;0.30;;;24.00;55.40;;;;;;4507653;31;20120;-67
2022/08/09 09:11:46;;;;;;;1.33;0.32;;;24.00;55.30;;;;;;4507221;31;20180;-67
2022/08/09 09:14:16;;;;;;;3.80;0.40;;;24.00;55.20;;;;;;4507433;31;20292;-67
2022/08/09 09:16:43;;;;;;;1.05;0.40;;;24.00;55.20;;;;;;4508004;31;20089;-68
2022/08/09 09:19:10;;;;;;;1.60;0.30;;;24.00;55.00;;;;;;4507076;31;20403;-68
2022/08/09 09:21:54;;;;;;;1.00;0.60;;;24.00;54.70;;;;;;4507572;31;20166;-69
2022/08/09 09:24:30;;;;;;;0.77;0.25;;;24.00;54.60;;;;;;4507425;31;20085;-68
2022/08/09 09:26:58;;;;;;;2.28;0.30;;;24.00;54.40;;;;;;4507687;31;20482;-68
2022/08/09 09:29:43;;;;;;;0.52;0.40;;;24.00;54.50;;;;;;4507187;31;20110;-67
2022/08/09 09:32:10;;;;;;;0.50;0.40;;;24.00;54.50;;;;;;4510409;31;20085;-68
2022/08/09 09:34:36;;;;;;;1.52;0.40;;;24.00;54.50;;;;;;4510107;31;20092;-68
2022/08/09 09:37:05;;;;;;;1.63;0.35;;;24.00;54.40;;;;;;4510461;31;20082;-68
2022/08/09 09:39:31;;;;;;;0.98;0.40;;;24.00;54.30;;;;;;4510014;31;20079;-68
2022/08/09 09:41:58;;;;;;;0.85;0.30;;;24.10;54.40;;;;;;4509968;31;20403;-67
2022/08/09 09:44:29;;;;;;;0.52;0.20;;;24.10;54.40;;;;;;4509641;31;20234;-67
2022/08/09 09:47:17;;;;;;;1.20;0.28;;;24.10;55.30;;;;;;4509373;31;20140;-68
2022/08/09 09:49:53;;;;;;;0.52;0.20;;;24.20;55.10;;;;;;4509640;31;20111;-68
2022/08/09 09:52:21;;;;;;;1.70;0.30;;;24.20;54.20;;;;;;4510185;31;20084;-67
2022/08/09 09:54:47;;;;;;;1.80;0.30;;;24.20;54.00;;;;;;4495240;31;20077;-67
2022/08/09 09:57:21;;;;;;;1.63;0.30;;;24.20;53.90;;;;;;4509784;31;20064;-67
2022/08/09 09:59:50;;;;;;;2.38;0.20;;;24.20;53.60;;;;;;4509747;31;20162;-67
2022/08/09 10:02:17;;;;;;;2.10;0.20;;;24.20;53.50;;;;;;4509364;31;20081;-67
2022/08/09 10:04:44;;;;;;;1.50;0.30;;;24.20;53.50;;;;;;4509425;31;20080;-67
2022/08/09 10:07:24;;;;;;;0.85;0.20;;;24.10;53.20;;;;;;4509520;31;20076;-67
2022/08/09 10:09:54;;;;;;;0.85;0.20;;;24.20;53.00;;;;;;4509488;31;20085;-67
2022/08/09 10:12:25;;;;;;;0.75;0.20;;;24.20;53.00;;;;;;4509265;31;20088;-68
2022/08/09 10:15:01;;;;;;;0.30;0.20;;;24.10;52.70;;;;;;4495300;31;20081;-67
2022/08/09 10:17:32;;;;;;;0.63;0.20;;;24.20;52.60;;;;;;4509462;31;20088;-68
2022/08/09 10:20:00;;;;;;;0.60;0.30;;;24.20;52.40;;;;;;4509479;31;20509;-67
2022/08/09 10:22:36;;;;;;;0.50;0.20;;;24.20;52.30;;;;;;4509129;31;20073;-67
2022/08/09 10:25:04;;;;;;;0.73;0.20;;;24.20;52.00;;;;;;4509701;31;20057;-68
2022/08/09 10:27:31;;;;;;;0.57;0.20;;;24.20;52.00;;;;;;4509550;31;20084;-67
2022/08/09 10:30:01;;;;;;;1.90;0.20;;;24.20;51.80;;;;;;4509136;31;20425;-67
2022/08/09 10:32:27;;;;;;;0.90;0.20;;;24.20;51.70;;;;;;4509248;31;20436;-68
2022/08/09 10:34:54;;;;;;;0.75;0.40;;;24.20;51.50;;;;;;4509477;31;20069;-67
2022/08/09 10:37:22;;;;;;;0.75;0.20;;;24.20;51.30;;;;;;4509432;31;20077;-67
2022/08/09 10:39:49;;;;;;;2.53;0.57;;;24.10;51.20;;;;;;4508844;31;20085;-68
2022/08/09 10:42:15;;;;;;;2.42;0.70;;;24.10;51.20;;;;;;4508528;31;20096;-67
2022/08/09 10:44:47;;;;;;;4.13;0.80;;;24.10;51.20;;;;;;4509396;31;20463;-67
2022/08/09 10:47:59;;;;;;;4.65;0.68;;;24.10;51.10;;;;;;4509101;31;20150;-67
2022/08/09 10:51:08;;;;;;;4.38;0.77;;;24.10;51.20;;;;;;4494784;31;20088;-67
2022/08/09 10:54:01;;;;;;;5.55;0.80;;;24.10;51.60;;;;;;4469973;31;20086;-67
2022/08/09 10:56:29;;;;;;;4.80;1.25;;;24.00;51.80;;;;;;4509150;31;20126;-67
2022/08/09 10:58:59;;;;;;;5.25;0.90;;;24.00;52.00;;;;;;4508991;31;20092;-69
2022/08/09 11:01:31;;;;;;;7.35;1.10;;;24.00;52.30;;;;;;4508541;31;20138;-69
2022/08/09 11:04:09;;;;;;;4.68;0.65;;;24.00;52.80;;;;;;4508659;31;20076;-69
2022/08/09 11:06:36;;;;;;;4.55;0.93;;;24.00;53.00;;;;;;4508753;31;20093;-69
2022/08/09 11:09:04;;;;;;;6.55;1.08;;;24.00;53.00;;;;;;4508508;31;20292;-69
2022/08/09 11:11:58;;;;;;;6.13;0.85;;;24.00;53.20;;;;;;4494137;31;20100;-69
2022/08/09 11:14:29;;;;;;;;;;;24.00;53.30;;;;;;4509479;31;20621;-69
2022/08/09 11:16:56;;;;;;;6.70;0.80;;;24.00;53.40;;;;;;4508522;31;20039;-68
2022/08/09 11:19:54;;;;;;;5.85;1.10;;;24.00;53.50;;;;;;4493918;31;20085;-69
2022/08/09 11:22:43;;;;;;;6.28;0.70;;;24.00;53.70;;;;;;4508454;31;20199;-68
2022/08/09 11:25:13;;;;;;;4.93;0.75;;;24.00;53.70;;;;;;4508322;31;20091;-69
2022/08/09 11:27:48;;;;;;;3.60;0.77;;;24.00;53.80;;;;;;4508402;31;20173;-68
2022/08/09 11:30:21;;;;;;;4.78;0.70;;;24.00;53.90;;;;;;4508337;31;20582;-69
2022/08/09 11:32:51;;;;;;;5.38;0.47;;;24.00;54.00;;;;;;4508354;31;20480;-68
2022/08/09 11:35:28;;;;;;;3.13;0.60;;;24.00;54.00;;;;;;4508605;31;20092;-68
2022/08/09 11:37:57;;;;;;;6.65;0.77;;;24.00;54.10;;;;;;4493709;31;20123;-69
2022/08/09 11:40:22;;;;;;;3.85;0.68;;;24.00;54.10;;;;;;4507916;31;20087;-68
2022/08/09 11:42:51;;;;;;;4.45;0.90;;;24.00;54.20;;;;;;4508157;31;20068;-69
2022/08/09 11:45:20;;;;;;;3.03;0.60;;;24.00;54.20;;;;;;4508095;31;20218;-69
2022/08/09 11:47:47;;;;;;;1.95;0.52;;;24.00;54.20;;;;;;4507828;31;20600;-68
2022/08/09 11:50:13;;;;;;;2.80;0.80;;;24.00;54.20;;;;;;4507987;31;20488;-68
2022/08/09 11:52:57;;;;;;;2.05;0.60;;;24.00;54.30;;;;;;4508261;31;20065;-68
2022/08/09 11:55:41;;;;;;;2.72;0.70;;;24.00;54.30;;;;;;4507602;31;20124;-69
2022/08/09 11:58:13;;;;;;;2.17;0.50;;;24.00;54.40;;;;;;4508005;31;20151;-68
2022/08/09 12:01:02;;;;;;;4.47;0.55;;;24.00;54.50;;;;;;4508202;31;20068;-69
2022/08/09 12:03:28;;;;;;;4.82;0.70;;;24.00;54.50;;;;;;4508099;31;20520;-68
2022/08/09 12:05:59;;;;;;;3.35;0.80;;;24.00;54.50;;;;;;4507572;31;20109;-69
2022/08/09 12:08:27;;;;;;;6.05;0.70;;;24.00;54.60;;;;;;4508178;31;20069;-68
2022/08/09 12:10:55;;;;;;;3.38;0.82;;;24.00;54.60;;;;;;4507746;31;20081;-69
2022/08/09 12:13:32;;;;;;;3.60;0.47;;;24.00;54.60;;;;;;4507628;31;20423;-68
2022/08/09 12:16:11;;;;;;;2.15;0.68;;;24.00;54.60;;;;;;4507927;31;20456;-69
2022/08/09 12:18:41;;;;;;;1.48;0.55;;;24.00;54.70;;;;;;4507783;31;20080;-69
2022/08/09 12:21:10;;;;;;;1.45;0.50;;;24.00;54.70;;;;;;4507464;31;20072;-68
2022/08/09 12:23:46;;;;;;;2.58;0.30;;;24.00;54.80;;;;;;4507858;31;20497;-68
2022/08/09 12:26:13;;;;;;;2.40;0.50;;;24.00;54.80;;;;;;4507876;31;20121;-69
2022/08/09 12:28:49;;;;;;;1.80;0.50;;;24.00;54.80;;;;;;4507869;31;20127;-69
2022/08/09 12:31:27;;;;;;;1.35;0.43;;;24.10;54.90;;;;;;4507729;31;20101;-68
2022/08/09 12:33:54;;;;;;;2.03;0.50;;;24.10;54.90;;;;;;4507675;31;20084;-69
2022/08/09 12:36:22;;;;;;;0.60;0.40;;;24.10;54.90;;;;;;4507975;31;20085;-68
2022/08/09 12:38:52;;;;;;;2.38;0.45;;;24.10;55.00;;;;;;4507825;31;20488;-69
2022/08/09 12:41:30;;;;;;;2.10;0.50;;;24.10;55.00;;;;;;4493393;31;20252;-68
2022/08/09 12:43:57;;;;;;;3.50;0.50;;;24.10;55.00;;;;;;4507575;31;20134;-68
2022/08/09 12:46:24;;;;;;;1.38;0.70;;;24.10;55.00;;;;;;4493402;31;20081;-69
2022/08/09 12:48:53;;;;;;;1.05;0.40;;;24.10;55.00;;;;;;4507103;31;20095;-69
2022/08/09 12:51:20;;;;;;;1.33;0.50;;;24.10;54.90;;;;;;4507319;31;20081;-68
2022/08/09 12:54:00;;;;;;;3.45;0.40;;;24.20;55.00;;;;;;4507531;31;20068;-69
2022/08/09 12:56:27;;;;;;;1.85;0.25;;;24.20;55.00;;;;;;4507918;31;20108;-69
2022/08/09 12:59:12;;;;;;;0.77;0.38;;;24.20;55.00;;;;;;4507773;31;20516;-69